sensor_id;sensor_type;location;lat;lon;timestamp;temperature;humidity
76750;DHT22;66447;35.844;14.468;2023-08-06T00:11:23;23.69;118.99
76750;DHT22;66447;35.844;14.468;2023-08-06T00:26:24;23.52;118.99
76750;DHT22;66447;35.844;14.468;2023-08-06T00:41:25;23.76;118.99
76750;DHT22;66447;35.844;14.468;2023-08-06T00:56:26;23.51;118.99
76750;DHT22;66447;35.844;14.468;2023-08-06T01:11:48;23.42;118.99
76750;DHT22;66447;35.844;14.468;2023-08-06T01:26:58;24.33;118.99
76750;DHT22;66447;35.844;14.468;2023-08-06T01:42:02;19.73;118.99
76750;DHT22;66447;35.844;14.468;2023-08-06T01:57:03;24.60;118.99
76750;DHT22;66447;35.844;14.468;2023-08-06T02:12:04;23.27;118.99
76750;DHT22;66447;35.844;14.468;2023-08-06T02:27:05;23.39;118.99
76750;DHT22;66447;35.844;14.468;2023-08-06T02:42:07;24.49;118.99
76750;DHT22;66447;35.844;14.468;2023-08-06T02:57:08;19.63;118.99
76750;DHT22;66447;35.844;14.468;2023-08-06T03:12:08;23.87;118.99
76750;DHT22;66447;35.844;14.468;2023-08-06T03:27:09;22.86;118.99
76750;DHT22;66447;35.844;14.468;2023-08-06T03:42:10;24.08;118.99
76750;DHT22;66447;35.844;14.468;2023-08-06T03:57:11;23.59;118.99
76750;DHT22;66447;35.844;14.468;2023-08-06T04:12:12;24.16;118.99
76750;DHT22;66447;35.844;14.468;2023-08-06T04:27:13;24.16;118.99
76750;DHT22;66447;35.844;14.468;2023-08-06T04:42:15;23.99;118.99
76750;DHT22;66447;35.844;14.468;2023-08-06T04:57:16;23.70;118.99
76750;DHT22;66447;35.844;14.468;2023-08-06T05:12:16;24.20;118.99
76750;DHT22;66447;35.844;14.468;2023-08-06T05:27:17;26.03;118.99
76750;DHT22;66447;35.844;14.468;2023-08-06T05:42:19;22.71;118.99
76750;DHT22;66447;35.844;14.468;2023-08-06T05:57:20;24.17;118.99
76750;DHT22;66447;35.844;14.468;2023-08-06T06:12:21;26.09;37.11
76750;DHT22;66447;35.844;14.468;2023-08-06T06:27:23;26.85;118.99
76750;DHT22;66447;35.844;14.468;2023-08-06T06:42:24;26.55;118.99
76750;DHT22;66447;35.844;14.468;2023-08-06T06:57:24;28.01;118.99
76750;DHT22;66447;35.844;14.468;2023-08-06T07:12:25;29.54;-6.00
76750;DHT22;66447;35.844;14.468;2023-08-06T07:27:26;28.08;118.99
76750;DHT22;66447;35.844;14.468;2023-08-06T07:42:27;28.79;118.99
76750;DHT22;66447;35.844;14.468;2023-08-06T07:57:28;27.57;-6.00
76750;DHT22;66447;35.844;14.468;2023-08-06T08:12:29;27.76;-6.00
76750;DHT22;66447;35.844;14.468;2023-08-06T08:27:29;27.88;118.99
76750;DHT22;66447;35.844;14.468;2023-08-06T08:42:31;23.55;-6.00
76750;DHT22;66447;35.844;14.468;2023-08-06T08:57:32;27.56;118.99
76750;DHT22;66447;35.844;14.468;2023-08-06T09:12:33;26.21;118.99
76750;DHT22;66447;35.844;14.468;2023-08-06T09:27:34;29.78;-6.00
76750;DHT22;66447;35.844;14.468;2023-08-06T09:42:36;31.10;-6.00
76750;DHT22;66447;35.844;14.468;2023-08-06T09:57:38;30.55;-6.00
76750;DHT22;66447;35.844;14.468;2023-08-06T10:12:45;28.30;-6.00
76750;DHT22;66447;35.844;14.468;2023-08-06T10:42:47;28.78;-6.00
76750;DHT22;66447;35.844;14.468;2023-08-06T10:57:48;28.08;48.50
76750;DHT22;66447;35.844;14.468;2023-08-06T11:12:49;29.77;29.76
76750;DHT22;66447;35.844;14.468;2023-08-06T11:27:50;26.30;48.79
76750;DHT22;66447;35.844;14.468;2023-08-06T11:42:51;26.89;53.22
76750;DHT22;66447;35.844;14.468;2023-08-06T11:57:52;27.73;118.99
76750;DHT22;66447;35.844;14.468;2023-08-06T12:12:53;30.35;118.99
76750;DHT22;66447;35.844;14.468;2023-08-06T12:27:54;30.16;118.99
76750;DHT22;66447;35.844;14.468;2023-08-06T12:42:55;28.30;118.99
76750;DHT22;66447;35.844;14.468;2023-08-06T12:57:56;30.18;118.99
76750;DHT22;66447;35.844;14.468;2023-08-06T13:12:57;29.73;118.99
76750;DHT22;66447;35.844;14.468;2023-08-06T13:27:58;29.02;118.99
76750;DHT22;66447;35.844;14.468;2023-08-06T13:42:59;29.65;118.99
76750;DHT22;66447;35.844;14.468;2023-08-06T13:57:59;28.65;118.99
76750;DHT22;66447;35.844;14.468;2023-08-06T14:13:00;28.57;118.99
76750;DHT22;66447;35.844;14.468;2023-08-06T14:28:01;27.19;118.99
76750;DHT22;66447;35.844;14.468;2023-08-06T14:43:02;27.52;118.99
76750;DHT22;66447;35.844;14.468;2023-08-06T14:58:03;27.27;118.99
76750;DHT22;66447;35.844;14.468;2023-08-06T15:13:04;27.73;118.99
76750;DHT22;66447;35.844;14.468;2023-08-06T15:28:05;26.86;118.99
76750;DHT22;66447;35.844;14.468;2023-08-06T15:43:06;28.09;118.99
76750;DHT22;66447;35.844;14.468;2023-08-06T15:58:07;25.25;118.99
76750;DHT22;66447;35.844;14.468;2023-08-06T16:13:08;26.77;118.99
76750;DHT22;66447;35.844;14.468;2023-08-06T16:28:09;26.52;118.99
76750;DHT22;66447;35.844;14.468;2023-08-06T16:43:10;25.89;118.99
76750;DHT22;66447;35.844;14.468;2023-08-06T16:58:11;25.94;118.99
76750;DHT22;66447;35.844;14.468;2023-08-06T17:13:12;26.47;118.99
76750;DHT22;66447;35.844;14.468;2023-08-06T17:28:13;25.08;118.99
76750;DHT22;66447;35.844;14.468;2023-08-06T17:43:14;24.58;118.99
76750;DHT22;66447;35.844;14.468;2023-08-06T17:58:23;24.73;118.99
76750;DHT22;66447;35.844;14.468;2023-08-06T18:13:25;24.72;118.99
76750;DHT22;66447;35.844;14.468;2023-08-06T18:28:26;24.49;118.99
76750;DHT22;66447;35.844;14.468;2023-08-06T18:43:28;24.99;118.99
76750;DHT22;66447;35.844;14.468;2023-08-06T18:58:28;24.47;118.99
76750;DHT22;66447;35.844;14.468;2023-08-06T19:13:29;23.98;118.99
76750;DHT22;66447;35.844;14.468;2023-08-06T19:28:30;23.98;118.99
76750;DHT22;66447;35.844;14.468;2023-08-06T19:43:33;24.05;118.99
76750;DHT22;66447;35.844;14.468;2023-08-06T19:58:35;23.24;118.99
76750;DHT22;66447;35.844;14.468;2023-08-06T20:13:39;23.65;118.99
76750;DHT22;66447;35.844;14.468;2023-08-06T20:28:40;23.10;118.99
76750;DHT22;66447;35.844;14.468;2023-08-06T20:43:41;23.91;118.99
76750;DHT22;66447;35.844;14.468;2023-08-06T20:58:42;23.96;118.99
76750;DHT22;66447;35.844;14.468;2023-08-06T21:13:42;23.40;118.99
76750;DHT22;66447;35.844;14.468;2023-08-06T21:28:44;22.79;118.99
76750;DHT22;66447;35.844;14.468;2023-08-06T21:43:46;23.25;118.99
76750;DHT22;66447;35.844;14.468;2023-08-06T21:58:49;22.76;118.99
76750;DHT22;66447;35.844;14.468;2023-08-06T22:13:50;24.13;118.99
76750;DHT22;66447;35.844;14.468;2023-08-06T22:28:51;23.45;118.99
76750;DHT22;66447;35.844;14.468;2023-08-06T22:43:52;22.84;118.99
76750;DHT22;66447;35.844;14.468;2023-08-06T22:58:53;23.16;118.99
76750;DHT22;66447;35.844;14.468;2023-08-06T23:13:55;24.10;118.99
76750;DHT22;66447;35.844;14.468;2023-08-06T23:28:56;23.89;118.99
76750;DHT22;66447;35.844;14.468;2023-08-06T23:43:57;22.26;118.99
76750;DHT22;66447;35.844;14.468;2023-08-06T23:58:58;23.12;118.99
